sensor_id;sensor_type;location;lat;lon;timestamp;pressure;altitude;pressure_sealevel;temperature;humidity
78309;BME280;67566;42.022;21.356;2023-07-29T00:01:50;98367.84;;;21.12;55.05
78309;BME280;67566;42.022;21.356;2023-07-29T00:04:16;98371.38;;;21.16;54.58
78309;BME280;67566;42.022;21.356;2023-07-29T00:06:42;98367.13;;;21.19;54.68
78309;BME280;67566;42.022;21.356;2023-07-29T00:09:07;98372.16;;;21.20;54.99
78309;BME280;67566;42.022;21.356;2023-07-29T00:11:33;98370.59;;;21.19;54.95
78309;BME280;67566;42.022;21.356;2023-07-29T00:14:00;98372.91;;;21.17;54.24
78309;BME280;67566;42.022;21.356;2023-07-29T00:16:28;98379.84;;;21.15;55.11
78309;BME280;67566;42.022;21.356;2023-07-29T00:18:54;98382.50;;;21.04;55.14
78309;BME280;67566;42.022;21.356;2023-07-29T00:21:19;98377.44;;;20.99;54.76
78309;BME280;67566;42.022;21.356;2023-07-29T00:23:45;98375.06;;;20.93;55.23
78309;BME280;67566;42.022;21.356;2023-07-29T00:26:10;98378.13;;;20.88;55.41
78309;BME280;67566;42.022;21.356;2023-07-29T00:28:36;98376.88;;;20.79;55.43
78309;BME280;67566;42.022;21.356;2023-07-29T00:31:02;98373.00;;;20.76;55.40
78309;BME280;67566;42.022;21.356;2023-07-29T00:33:27;98379.16;;;20.73;55.46
78309;BME280;67566;42.022;21.356;2023-07-29T00:35:53;98377.59;;;20.75;54.98
78309;BME280;67566;42.022;21.356;2023-07-29T00:38:18;98380.75;;;20.78;55.41
78309;BME280;67566;42.022;21.356;2023-07-29T00:40:44;98377.59;;;20.75;55.55
78309;BME280;67566;42.022;21.356;2023-07-29T00:43:09;98374.50;;;20.73;55.46
78309;BME280;67566;42.022;21.356;2023-07-29T00:45:35;98375.25;;;20.70;55.19
78309;BME280;67566;42.022;21.356;2023-07-29T00:48:02;98381.06;;;20.69;55.29
78309;BME280;67566;42.022;21.356;2023-07-29T00:50:30;98377.19;;;20.70;55.37
78309;BME280;67566;42.022;21.356;2023-07-29T00:52:56;98367.91;;;20.67;55.62
78309;BME280;67566;42.022;21.356;2023-07-29T00:55:22;98365.22;;;20.71;55.93
78309;BME280;67566;42.022;21.356;2023-07-29T00:57:48;98363.63;;;20.66;55.66
78309;BME280;67566;42.022;21.356;2023-07-29T01:00:17;98365.09;;;20.60;55.92
78309;BME280;67566;42.022;21.356;2023-07-29T01:02:43;98363.44;;;20.48;56.70
78309;BME280;67566;42.022;21.356;2023-07-29T01:05:11;98362.59;;;20.44;57.19
78309;BME280;67566;42.022;21.356;2023-07-29T01:08:09;98364.53;;;20.44;56.68
78309;BME280;67566;42.022;21.356;2023-07-29T01:13:50;98364.81;;;20.31;57.94
78309;BME280;67566;42.022;21.356;2023-07-29T01:16:31;98367.81;;;20.23;57.21
78309;BME280;67566;42.022;21.356;2023-07-29T01:18:59;98365.47;;;20.21;56.81
78309;BME280;67566;42.022;21.356;2023-07-29T01:21:30;98369.34;;;20.20;56.81
78309;BME280;67566;42.022;21.356;2023-07-29T01:23:58;98363.06;;;20.12;57.17
78309;BME280;67566;42.022;21.356;2023-07-29T01:26:24;98360.69;;;20.07;56.82
78309;BME280;67566;42.022;21.356;2023-07-29T01:28:50;98351.41;;;20.05;57.75
78309;BME280;67566;42.022;21.356;2023-07-29T01:31:25;98353.38;;;20.08;57.18
78309;BME280;67566;42.022;21.356;2023-07-29T01:33:57;98348.41;;;20.13;57.02
78309;BME280;67566;42.022;21.356;2023-07-29T01:36:28;98355.81;;;20.20;57.45
78309;BME280;67566;42.022;21.356;2023-07-29T01:38:57;98348.41;;;20.13;57.36
78309;BME280;67566;42.022;21.356;2023-07-29T01:41:24;98352.19;;;20.05;58.07
78309;BME280;67566;42.022;21.356;2023-07-29T01:43:50;98347.09;;;20.00;57.33
78309;BME280;67566;42.022;21.356;2023-07-29T01:46:17;98355.53;;;19.95;57.90
78309;BME280;67566;42.022;21.356;2023-07-29T01:48:42;98344.63;;;19.84;58.77
78309;BME280;67566;42.022;21.356;2023-07-29T01:51:11;98344.56;;;19.80;58.71
78309;BME280;67566;42.022;21.356;2023-07-29T01:53:37;98345.25;;;19.74;59.17
78309;BME280;67566;42.022;21.356;2023-07-29T01:56:02;98347.53;;;19.72;58.61
78309;BME280;67566;42.022;21.356;2023-07-29T01:58:28;98358.25;;;19.65;59.31
78309;BME280;67566;42.022;21.356;2023-07-29T02:00:53;98350.16;;;19.65;58.85
78309;BME280;67566;42.022;21.356;2023-07-29T02:03:19;98351.72;;;19.69;58.65
78309;BME280;67566;42.022;21.356;2023-07-29T02:05:44;98347.97;;;19.74;59.22
78309;BME280;67566;42.022;21.356;2023-07-29T02:08:10;98354.94;;;19.75;59.22
78309;BME280;67566;42.022;21.356;2023-07-29T02:10:36;98354.59;;;19.80;58.60
78309;BME280;67566;42.022;21.356;2023-07-29T02:13:02;98355.78;;;19.83;58.95
78309;BME280;67566;42.022;21.356;2023-07-29T02:15:27;98356.19;;;19.85;59.11
78309;BME280;67566;42.022;21.356;2023-07-29T02:17:53;98354.28;;;19.85;58.67
78309;BME280;67566;42.022;21.356;2023-07-29T02:20:19;98358.53;;;19.86;58.29
78309;BME280;67566;42.022;21.356;2023-07-29T02:22:44;98362.38;;;19.85;58.98
78309;BME280;67566;42.022;21.356;2023-07-29T02:25:10;98360.75;;;19.77;58.22
78309;BME280;67566;42.022;21.356;2023-07-29T02:27:38;98362.13;;;19.67;58.71
78309;BME280;67566;42.022;21.356;2023-07-29T02:32:48;98358.53;;;19.56;59.10
78309;BME280;67566;42.022;21.356;2023-07-29T02:35:14;98373.56;;;19.57;58.57
78309;BME280;67566;42.022;21.356;2023-07-29T02:37:39;98373.16;;;19.55;59.71
78309;BME280;67566;42.022;21.356;2023-07-29T02:40:05;98376.56;;;19.52;59.12
78309;BME280;67566;42.022;21.356;2023-07-29T02:42:31;98373.41;;;19.46;59.61
78309;BME280;67566;42.022;21.356;2023-07-29T02:44:56;98377.44;;;19.29;60.17
78309;BME280;67566;42.022;21.356;2023-07-29T02:47:22;98381.28;;;19.28;60.58
78309;BME280;67566;42.022;21.356;2023-07-29T02:49:47;98387.34;;;19.21;61.12
78309;BME280;67566;42.022;21.356;2023-07-29T02:52:13;98385.69;;;19.13;60.60
78309;BME280;67566;42.022;21.356;2023-07-29T02:54:38;98392.19;;;19.09;61.60
78309;BME280;67566;42.022;21.356;2023-07-29T02:57:04;98392.13;;;19.05;61.38
78309;BME280;67566;42.022;21.356;2023-07-29T02:59:29;98390.25;;;19.09;61.64
78309;BME280;67566;42.022;21.356;2023-07-29T03:01:55;98401.09;;;19.13;61.37
78309;BME280;67566;42.022;21.356;2023-07-29T03:04:20;98398.81;;;19.15;61.43
78309;BME280;67566;42.022;21.356;2023-07-29T03:06:46;98400.84;;;19.21;61.49
78309;BME280;67566;42.022;21.356;2023-07-29T03:09:13;98394.38;;;19.26;61.64
78309;BME280;67566;42.022;21.356;2023-07-29T03:11:42;98404.44;;;19.29;61.45
78309;BME280;67566;42.022;21.356;2023-07-29T03:14:07;98409.44;;;19.31;61.90
78309;BME280;67566;42.022;21.356;2023-07-29T03:16:33;98411.34;;;19.27;61.07
78309;BME280;67566;42.022;21.356;2023-07-29T03:18:58;98405.16;;;19.26;60.27
78309;BME280;67566;42.022;21.356;2023-07-29T03:21:26;98405.56;;;19.28;60.88
78309;BME280;67566;42.022;21.356;2023-07-29T03:23:51;98407.91;;;19.30;60.49
78309;BME280;67566;42.022;21.356;2023-07-29T03:26:17;98398.66;;;19.31;61.15
78309;BME280;67566;42.022;21.356;2023-07-29T03:29:02;98399.50;;;19.35;60.70
78309;BME280;67566;42.022;21.356;2023-07-29T03:31:30;98398.34;;;19.36;60.34
78309;BME280;67566;42.022;21.356;2023-07-29T03:33:56;98399.56;;;19.38;61.20
78309;BME280;67566;42.022;21.356;2023-07-29T03:36:21;98404.28;;;19.45;60.40
78309;BME280;67566;42.022;21.356;2023-07-29T03:38:47;98398.56;;;19.50;61.04
78309;BME280;67566;42.022;21.356;2023-07-29T03:41:12;98407.09;;;19.52;61.20
78309;BME280;67566;42.022;21.356;2023-07-29T03:43:38;98408.94;;;19.48;59.89
78309;BME280;67566;42.022;21.356;2023-07-29T03:46:03;98398.88;;;19.45;60.96
78309;BME280;67566;42.022;21.356;2023-07-29T03:48:28;98412.38;;;19.45;60.59
78309;BME280;67566;42.022;21.356;2023-07-29T03:50:54;98401.94;;;19.43;61.01
78309;BME280;67566;42.022;21.356;2023-07-29T03:53:19;98404.66;;;19.43;60.20
78309;BME280;67566;42.022;21.356;2023-07-29T03:55:45;98410.00;;;19.40;60.25
78309;BME280;67566;42.022;21.356;2023-07-29T03:58:11;98408.44;;;19.39;60.20
78309;BME280;67566;42.022;21.356;2023-07-29T04:00:37;98413.00;;;19.35;60.59
78309;BME280;67566;42.022;21.356;2023-07-29T04:03:02;98419.53;;;19.34;60.41
78309;BME280;67566;42.022;21.356;2023-07-29T04:05:28;98419.53;;;19.34;60.61
78309;BME280;67566;42.022;21.356;2023-07-29T04:07:54;98415.72;;;19.35;59.96
78309;BME280;67566;42.022;21.356;2023-07-29T04:10:19;98414.91;;;19.34;60.37
78309;BME280;67566;42.022;21.356;2023-07-29T04:12:45;98418.47;;;19.38;60.83
78309;BME280;67566;42.022;21.356;2023-07-29T04:15:10;98428.53;;;19.41;60.71
78309;BME280;67566;42.022;21.356;2023-07-29T04:17:36;98424.31;;;19.44;61.28
78309;BME280;67566;42.022;21.356;2023-07-29T04:20:02;98426.66;;;19.46;61.15
78309;BME280;67566;42.022;21.356;2023-07-29T04:22:28;98427.47;;;19.50;60.56
78309;BME280;67566;42.022;21.356;2023-07-29T04:24:53;98430.59;;;19.52;60.59
78309;BME280;67566;42.022;21.356;2023-07-29T04:27:19;98422.13;;;19.53;61.09
78309;BME280;67566;42.022;21.356;2023-07-29T04:29:44;98432.56;;;19.55;61.54
78309;BME280;67566;42.022;21.356;2023-07-29T04:32:10;98428.38;;;19.57;60.03
78309;BME280;67566;42.022;21.356;2023-07-29T04:34:35;98416.41;;;19.58;61.31
78309;BME280;67566;42.022;21.356;2023-07-29T04:37:01;98425.31;;;19.59;61.28
78309;BME280;67566;42.022;21.356;2023-07-29T04:39:26;98426.13;;;19.63;61.30
78309;BME280;67566;42.022;21.356;2023-07-29T04:41:52;98432.75;;;19.69;60.87
78309;BME280;67566;42.022;21.356;2023-07-29T04:44:17;98429.78;;;19.74;60.87
78309;BME280;67566;42.022;21.356;2023-07-29T04:46:42;98441.09;;;19.84;61.21
78309;BME280;67566;42.022;21.356;2023-07-29T04:49:08;98442.34;;;19.90;60.53
78309;BME280;67566;42.022;21.356;2023-07-29T04:51:34;98437.06;;;20.00;60.50
78309;BME280;67566;42.022;21.356;2023-07-29T04:53:59;98448.03;;;20.11;60.90
78309;BME280;67566;42.022;21.356;2023-07-29T04:56:25;98438.84;;;20.19;60.48
78309;BME280;67566;42.022;21.356;2023-07-29T04:58:51;98438.94;;;20.30;60.70
78309;BME280;67566;42.022;21.356;2023-07-29T05:01:16;98436.06;;;20.46;60.37
78309;BME280;67566;42.022;21.356;2023-07-29T05:03:42;98439.34;;;20.63;59.57
78309;BME280;67566;42.022;21.356;2023-07-29T05:06:07;98441.38;;;20.73;59.67
78309;BME280;67566;42.022;21.356;2023-07-29T05:08:33;98439.97;;;20.86;58.68
78309;BME280;67566;42.022;21.356;2023-07-29T05:10:58;98444.25;;;20.94;58.30
78309;BME280;67566;42.022;21.356;2023-07-29T05:13:25;98440.09;;;21.04;58.58
78309;BME280;67566;42.022;21.356;2023-07-29T05:15:50;98433.97;;;21.11;58.36
78309;BME280;67566;42.022;21.356;2023-07-29T05:18:16;98428.25;;;21.20;58.27
78309;BME280;67566;42.022;21.356;2023-07-29T05:20:42;98427.16;;;21.31;58.40
78309;BME280;67566;42.022;21.356;2023-07-29T05:23:08;98422.97;;;21.41;58.12
78309;BME280;67566;42.022;21.356;2023-07-29T05:25:33;98426.56;;;21.56;56.62
78309;BME280;67566;42.022;21.356;2023-07-29T05:28:02;98438.25;;;21.67;57.41
78309;BME280;67566;42.022;21.356;2023-07-29T05:30:28;98436.78;;;21.81;56.23
78309;BME280;67566;42.022;21.356;2023-07-29T05:32:57;98442.66;;;21.94;55.99
78309;BME280;67566;42.022;21.356;2023-07-29T05:35:23;98436.13;;;22.05;56.27
78309;BME280;67566;42.022;21.356;2023-07-29T05:37:48;98447.78;;;22.17;55.30
78309;BME280;67566;42.022;21.356;2023-07-29T05:40:14;98446.69;;;22.29;55.49
78309;BME280;67566;42.022;21.356;2023-07-29T05:42:39;98456.44;;;22.44;54.21
78309;BME280;67566;42.022;21.356;2023-07-29T05:45:05;98461.13;;;22.58;54.27
78309;BME280;67566;42.022;21.356;2023-07-29T05:47:31;98460.75;;;22.70;53.83
78309;BME280;67566;42.022;21.356;2023-07-29T05:49:56;98466.97;;;22.85;54.00
78309;BME280;67566;42.022;21.356;2023-07-29T05:52:22;98462.72;;;22.95;53.33
78309;BME280;67566;42.022;21.356;2023-07-29T05:54:47;98470.13;;;23.02;53.17
78309;BME280;67566;42.022;21.356;2023-07-29T05:57:13;98467.44;;;23.12;53.12
78309;BME280;67566;42.022;21.356;2023-07-29T05:59:38;98460.44;;;23.29;52.48
78309;BME280;67566;42.022;21.356;2023-07-29T06:02:04;98457.72;;;23.44;51.71
78309;BME280;67566;42.022;21.356;2023-07-29T06:04:30;98456.53;;;23.52;51.45
78309;BME280;67566;42.022;21.356;2023-07-29T06:06:56;98462.72;;;23.67;50.99
78309;BME280;67566;42.022;21.356;2023-07-29T06:09:22;98454.56;;;23.81;50.82
78309;BME280;67566;42.022;21.356;2023-07-29T06:11:47;98458.78;;;23.97;50.90
78309;BME280;67566;42.022;21.356;2023-07-29T06:14:13;98462.25;;;24.11;49.68
78309;BME280;67566;42.022;21.356;2023-07-29T06:16:38;98461.78;;;24.27;50.16
78309;BME280;67566;42.022;21.356;2023-07-29T06:19:04;98456.25;;;24.42;49.41
78309;BME280;67566;42.022;21.356;2023-07-29T06:21:30;98453.50;;;24.56;48.72
78309;BME280;67566;42.022;21.356;2023-07-29T06:23:56;98447.59;;;24.65;48.97
78309;BME280;67566;42.022;21.356;2023-07-29T06:26:21;98452.59;;;24.74;48.87
78309;BME280;67566;42.022;21.356;2023-07-29T06:28:47;98452.50;;;24.88;49.06
78309;BME280;67566;42.022;21.356;2023-07-29T06:31:12;98448.13;;;25.01;48.56
78309;BME280;67566;42.022;21.356;2023-07-29T06:33:38;98443.34;;;25.13;47.93
78309;BME280;67566;42.022;21.356;2023-07-29T06:36:06;98439.75;;;25.27;48.04
78309;BME280;67566;42.022;21.356;2023-07-29T06:38:32;98439.66;;;25.41;47.15
78309;BME280;67566;42.022;21.356;2023-07-29T06:40:57;98429.88;;;25.43;46.47
78309;BME280;67566;42.022;21.356;2023-07-29T06:43:23;98438.56;;;25.31;46.26
78309;BME280;67566;42.022;21.356;2023-07-29T06:45:48;98436.91;;;25.44;46.59
78309;BME280;67566;42.022;21.356;2023-07-29T06:48:14;98428.56;;;25.59;46.74
78309;BME280;67566;42.022;21.356;2023-07-29T06:50:39;98429.25;;;25.67;45.50
78309;BME280;67566;42.022;21.356;2023-07-29T06:53:05;98426.44;;;25.77;45.76
78309;BME280;67566;42.022;21.356;2023-07-29T06:55:31;98418.88;;;25.89;45.92
78309;BME280;67566;42.022;21.356;2023-07-29T06:57:57;98424.81;;;25.80;45.24
78309;BME280;67566;42.022;21.356;2023-07-29T07:00:22;98430.19;;;25.87;45.16
78309;BME280;67566;42.022;21.356;2023-07-29T07:02:48;98426.91;;;26.03;44.73
78309;BME280;67566;42.022;21.356;2023-07-29T07:05:13;98429.94;;;26.12;44.14
78309;BME280;67566;42.022;21.356;2023-07-29T07:07:39;98434.47;;;26.23;44.27
78309;BME280;67566;42.022;21.356;2023-07-29T07:10:05;98431.19;;;26.35;44.17
78309;BME280;67566;42.022;21.356;2023-07-29T07:12:30;98436.06;;;26.51;43.38
78309;BME280;67566;42.022;21.356;2023-07-29T07:14:56;98430.81;;;26.64;43.48
78309;BME280;67566;42.022;21.356;2023-07-29T07:17:21;98432.50;;;26.81;43.59
78309;BME280;67566;42.022;21.356;2023-07-29T07:19:47;98428.06;;;26.91;42.93
78309;BME280;67566;42.022;21.356;2023-07-29T07:22:12;98427.16;;;26.98;42.35
78309;BME280;67566;42.022;21.356;2023-07-29T07:24:38;98422.38;;;27.05;42.23
78309;BME280;67566;42.022;21.356;2023-07-29T07:27:03;98420.28;;;27.13;41.69
78309;BME280;67566;42.022;21.356;2023-07-29T07:29:29;98422.25;;;27.12;41.83
78309;BME280;67566;42.022;21.356;2023-07-29T07:31:56;98422.78;;;27.27;42.38
78309;BME280;67566;42.022;21.356;2023-07-29T07:34:22;98423.31;;;27.42;41.75
78309;BME280;67566;42.022;21.356;2023-07-29T07:36:47;98424.97;;;27.60;41.57
78309;BME280;67566;42.022;21.356;2023-07-29T07:39:13;98426.72;;;27.70;41.49
78309;BME280;67566;42.022;21.356;2023-07-29T07:41:39;98419.56;;;27.76;40.63
78309;BME280;67566;42.022;21.356;2023-07-29T07:44:05;98417.75;;;27.90;41.67
78309;BME280;67566;42.022;21.356;2023-07-29T07:46:30;98422.53;;;28.05;40.98
78309;BME280;67566;42.022;21.356;2023-07-29T07:48:56;98414.84;;;28.17;40.56
78309;BME280;67566;42.022;21.356;2023-07-29T07:51:21;98418.81;;;28.32;40.15
78309;BME280;67566;42.022;21.356;2023-07-29T07:53:46;98409.53;;;28.46;40.34
78309;BME280;67566;42.022;21.356;2023-07-29T07:56:12;98409.66;;;28.59;40.29
78309;BME280;67566;42.022;21.356;2023-07-29T07:58:38;98411.72;;;28.71;40.35
78309;BME280;67566;42.022;21.356;2023-07-29T08:01:08;98406.16;;;28.75;38.91
78309;BME280;67566;42.022;21.356;2023-07-29T08:03:35;98395.47;;;28.80;39.10
78309;BME280;67566;42.022;21.356;2023-07-29T08:06:00;98397.94;;;28.91;38.42
78309;BME280;67566;42.022;21.356;2023-07-29T08:08:27;98397.69;;;28.86;38.20
78309;BME280;67566;42.022;21.356;2023-07-29T08:10:53;98395.78;;;28.83;37.42
78309;BME280;67566;42.022;21.356;2023-07-29T08:13:23;98390.50;;;28.75;37.15
78309;BME280;67566;42.022;21.356;2023-07-29T08:15:50;98394.94;;;28.86;37.63
78309;BME280;67566;42.022;21.356;2023-07-29T08:18:16;98389.69;;;29.08;38.15
78309;BME280;67566;42.022;21.356;2023-07-29T08:20:55;98391.66;;;29.24;37.34
78309;BME280;67566;42.022;21.356;2023-07-29T08:23:24;98390.25;;;29.32;36.68
78309;BME280;67566;42.022;21.356;2023-07-29T08:25:52;98383.06;;;29.38;37.33
78309;BME280;67566;42.022;21.356;2023-07-29T08:28:18;98382.56;;;29.56;37.53
78309;BME280;67566;42.022;21.356;2023-07-29T08:30:43;98368.09;;;29.68;36.76
78309;BME280;67566;42.022;21.356;2023-07-29T08:33:08;98374.44;;;29.82;36.44
78309;BME280;67566;42.022;21.356;2023-07-29T08:35:34;98372.81;;;29.97;36.53
78309;BME280;67566;42.022;21.356;2023-07-29T08:37:59;98363.81;;;30.09;36.03
78309;BME280;67566;42.022;21.356;2023-07-29T08:40:27;98369.09;;;30.17;34.63
78309;BME280;67566;42.022;21.356;2023-07-29T08:42:55;98361.84;;;29.97;33.94
78309;BME280;67566;42.022;21.356;2023-07-29T08:45:23;98361.63;;;30.17;34.38
78309;BME280;67566;42.022;21.356;2023-07-29T08:47:50;98356.59;;;30.28;34.05
78309;BME280;67566;42.022;21.356;2023-07-29T08:50:20;98348.34;;;30.41;34.35
78309;BME280;67566;42.022;21.356;2023-07-29T08:52:46;98345.03;;;30.59;34.47
78309;BME280;67566;42.022;21.356;2023-07-29T08:55:12;98336.78;;;30.72;33.24
78309;BME280;67566;42.022;21.356;2023-07-29T08:57:37;98338.38;;;30.82;33.59
78309;BME280;67566;42.022;21.356;2023-07-29T09:00:03;98333.41;;;30.90;33.53
78309;BME280;67566;42.022;21.356;2023-07-29T09:02:29;98329.25;;;30.98;33.54
78309;BME280;67566;42.022;21.356;2023-07-29T09:04:55;98327.75;;;31.06;34.21
78309;BME280;67566;42.022;21.356;2023-07-29T09:07:20;98322.34;;;31.16;33.65
78309;BME280;67566;42.022;21.356;2023-07-29T09:09:46;98333.72;;;31.27;33.32
78309;BME280;67566;42.022;21.356;2023-07-29T09:12:11;98325.47;;;31.27;32.61
78309;BME280;67566;42.022;21.356;2023-07-29T09:14:37;98321.13;;;31.39;33.40
78309;BME280;67566;42.022;21.356;2023-07-29T09:17:03;98315.25;;;31.50;32.55
78309;BME280;67566;42.022;21.356;2023-07-29T09:19:33;98302.13;;;31.54;32.87
78309;BME280;67566;42.022;21.356;2023-07-29T09:21:58;98309.41;;;31.48;31.61
78309;BME280;67566;42.022;21.356;2023-07-29T09:24:24;98302.69;;;31.49;31.56
78309;BME280;67566;42.022;21.356;2023-07-29T09:26:51;98300.31;;;31.51;31.97
78309;BME280;67566;42.022;21.356;2023-07-29T09:29:22;98298.03;;;31.58;31.72
78309;BME280;67566;42.022;21.356;2023-07-29T09:31:48;98297.63;;;31.69;31.81
78309;BME280;67566;42.022;21.356;2023-07-29T09:34:15;98297.22;;;31.80;31.34
78309;BME280;67566;42.022;21.356;2023-07-29T09:36:41;98285.19;;;31.96;32.07
78309;BME280;67566;42.022;21.356;2023-07-29T09:39:11;98285.75;;;32.13;32.45
78309;BME280;67566;42.022;21.356;2023-07-29T09:41:36;98283.50;;;32.21;32.02
78309;BME280;67566;42.022;21.356;2023-07-29T09:44:03;98285.31;;;32.24;31.42
78309;BME280;67566;42.022;21.356;2023-07-29T09:46:34;98281.38;;;32.34;31.18
78309;BME280;67566;42.022;21.356;2023-07-29T09:49:03;98273.75;;;32.38;31.36
78309;BME280;67566;42.022;21.356;2023-07-29T09:51:28;98279.25;;;32.47;31.17
78309;BME280;67566;42.022;21.356;2023-07-29T09:53:54;98278.81;;;32.49;31.14
78309;BME280;67566;42.022;21.356;2023-07-29T09:56:24;98281.72;;;32.54;31.00
78309;BME280;67566;42.022;21.356;2023-07-29T09:58:51;98283.28;;;32.65;30.62
78309;BME280;67566;42.022;21.356;2023-07-29T10:01:17;98274.41;;;32.70;30.11
78309;BME280;67566;42.022;21.356;2023-07-29T10:03:44;98274.41;;;32.79;30.46
78309;BME280;67566;42.022;21.356;2023-07-29T10:06:10;98275.00;;;32.83;30.29
78309;BME280;67566;42.022;21.356;2023-07-29T10:08:36;98262.75;;;32.93;29.86
78309;BME280;67566;42.022;21.356;2023-07-29T10:11:09;98259.22;;;33.02;30.33
78309;BME280;67566;42.022;21.356;2023-07-29T10:13:35;98254.78;;;33.14;30.72
78309;BME280;67566;42.022;21.356;2023-07-29T10:16:02;98246.50;;;33.23;30.63
78309;BME280;67566;42.022;21.356;2023-07-29T10:18:28;98251.53;;;33.25;30.59
78309;BME280;67566;42.022;21.356;2023-07-29T10:20:57;98241.56;;;33.37;30.44
78309;BME280;67566;42.022;21.356;2023-07-29T10:23:24;98240.59;;;33.49;29.70
78309;BME280;67566;42.022;21.356;2023-07-29T10:25:58;98244.84;;;33.59;30.09
78309;BME280;67566;42.022;21.356;2023-07-29T10:28:29;98237.16;;;33.63;29.65
78309;BME280;67566;42.022;21.356;2023-07-29T10:30:56;98234.72;;;33.75;29.32
78309;BME280;67566;42.022;21.356;2023-07-29T10:33:22;98231.78;;;33.78;29.70
78309;BME280;67566;42.022;21.356;2023-07-29T10:35:48;98226.84;;;33.82;29.85
78309;BME280;67566;42.022;21.356;2023-07-29T10:38:15;98227.75;;;33.89;29.67
78309;BME280;67566;42.022;21.356;2023-07-29T10:40:47;98229.22;;;33.99;29.44
78309;BME280;67566;42.022;21.356;2023-07-29T10:43:19;98224.28;;;34.03;28.79
78309;BME280;67566;42.022;21.356;2023-07-29T10:45:44;98213.03;;;33.82;28.64
78309;BME280;67566;42.022;21.356;2023-07-29T10:48:11;98213.19;;;33.79;28.10
78309;BME280;67566;42.022;21.356;2023-07-29T10:50:37;98211.84;;;33.98;28.60
78309;BME280;67566;42.022;21.356;2023-07-29T10:53:04;98198.41;;;33.91;28.43
78309;BME280;67566;42.022;21.356;2023-07-29T10:55:34;98196.81;;;33.75;27.83
78309;BME280;67566;42.022;21.356;2023-07-29T10:58:06;98194.25;;;33.62;27.04
78309;BME280;67566;42.022;21.356;2023-07-29T11:00:32;98193.28;;;33.75;28.31
78309;BME280;67566;42.022;21.356;2023-07-29T11:03:00;98191.00;;;33.64;27.67
78309;BME280;67566;42.022;21.356;2023-07-29T11:05:26;98186.47;;;33.85;28.44
78309;BME280;67566;42.022;21.356;2023-07-29T11:08:36;98183.88;;;34.05;28.71
78309;BME280;67566;42.022;21.356;2023-07-29T11:11:06;98175.84;;;34.17;27.37
78309;BME280;67566;42.022;21.356;2023-07-29T11:13:34;98171.97;;;34.23;27.63
78309;BME280;67566;42.022;21.356;2023-07-29T11:16:00;98173.00;;;34.02;26.94
78309;BME280;67566;42.022;21.356;2023-07-29T11:18:34;98166.94;;;34.13;26.44
78309;BME280;67566;42.022;21.356;2023-07-29T11:21:02;98165.31;;;34.06;26.39
78309;BME280;67566;42.022;21.356;2023-07-29T11:23:33;98152.81;;;34.20;26.37
78309;BME280;67566;42.022;21.356;2023-07-29T11:25:59;98154.19;;;34.15;26.54
78309;BME280;67566;42.022;21.356;2023-07-29T11:28:26;98149.69;;;34.27;26.87
78309;BME280;67566;42.022;21.356;2023-07-29T11:30:52;98150.63;;;34.24;26.23
78309;BME280;67566;42.022;21.356;2023-07-29T11:33:27;98147.22;;;34.29;25.57
78309;BME280;67566;42.022;21.356;2023-07-29T11:36:19;98154.56;;;34.08;25.22
78309;BME280;67566;42.022;21.356;2023-07-29T11:38:45;98143.75;;;34.19;26.82
78309;BME280;67566;42.022;21.356;2023-07-29T11:41:52;98149.91;;;34.38;26.53
78309;BME280;67566;42.022;21.356;2023-07-29T11:44:37;98143.09;;;34.64;26.84
78309;BME280;67566;42.022;21.356;2023-07-29T11:47:07;98143.28;;;34.75;25.66
78309;BME280;67566;42.022;21.356;2023-07-29T11:49:38;98150.53;;;34.87;25.73
78309;BME280;67566;42.022;21.356;2023-07-29T11:52:06;98147.56;;;34.91;25.54
78309;BME280;67566;42.022;21.356;2023-07-29T11:54:32;98133.19;;;34.87;25.06
78309;BME280;67566;42.022;21.356;2023-07-29T11:57:01;98132.81;;;34.94;25.50
78309;BME280;67566;42.022;21.356;2023-07-29T11:59:27;98133.75;;;35.06;25.24
78309;BME280;67566;42.022;21.356;2023-07-29T12:01:53;98132.28;;;35.10;25.38
78309;BME280;67566;42.022;21.356;2023-07-29T12:04:22;98125.88;;;35.19;24.61
78309;BME280;67566;42.022;21.356;2023-07-29T12:06:51;98132.13;;;35.29;24.82
78309;BME280;67566;42.022;21.356;2023-07-29T12:09:16;98129.44;;;35.20;24.45
78309;BME280;67566;42.022;21.356;2023-07-29T12:11:45;98125.81;;;35.28;25.14
78309;BME280;67566;42.022;21.356;2023-07-29T12:14:13;98122.75;;;35.26;24.59
78309;BME280;67566;42.022;21.356;2023-07-29T12:16:42;98120.28;;;35.13;24.37
78309;BME280;67566;42.022;21.356;2023-07-29T12:19:08;98120.97;;;35.23;24.37
78309;BME280;67566;42.022;21.356;2023-07-29T12:21:36;98108.69;;;35.45;25.29
78309;BME280;67566;42.022;21.356;2023-07-29T12:24:03;98106.94;;;35.47;25.06
78309;BME280;67566;42.022;21.356;2023-07-29T12:26:32;98103.22;;;35.50;24.31
78309;BME280;67566;42.022;21.356;2023-07-29T12:29:19;98098.34;;;35.45;23.78
78309;BME280;67566;42.022;21.356;2023-07-29T12:31:46;98090.91;;;35.51;25.05
78309;BME280;67566;42.022;21.356;2023-07-29T12:34:21;98079.69;;;35.61;24.58
78309;BME280;67566;42.022;21.356;2023-07-29T12:36:51;98087.66;;;35.53;24.18
78309;BME280;67566;42.022;21.356;2023-07-29T12:39:18;98082.31;;;35.70;24.34
78309;BME280;67566;42.022;21.356;2023-07-29T12:41:44;98081.53;;;35.84;24.23
78309;BME280;67566;42.022;21.356;2023-07-29T12:44:10;98073.00;;;35.88;24.56
78309;BME280;67566;42.022;21.356;2023-07-29T12:46:35;98074.59;;;35.95;24.79
78309;BME280;67566;42.022;21.356;2023-07-29T12:49:01;98068.41;;;36.05;24.48
78309;BME280;67566;42.022;21.356;2023-07-29T12:51:31;98054.88;;;36.13;24.14
78309;BME280;67566;42.022;21.356;2023-07-29T12:53:57;98080.31;;;36.11;24.02
78309;BME280;67566;42.022;21.356;2023-07-29T12:56:22;98069.16;;;36.26;24.31